Tres Piedras, NM (87577)

5:44 PM MDT on April 18, 2015 (GMT -0600)
RAWS | | Change Station
CLOSE
Current Station
Personal Weather Station
Location: Vallecitos, NM
Elevation: 8803 ft
Nearby Weather Stations

Elev 8803 ft 36.56 °N, 106.10 °W | Updated 40 minutes ago

Mostly Cloudy
Mostly Cloudy
37 °F
Feels Like 32 °F
N
7
Wind Variable Wind from West
Gusts 15.0 mph

Today
High -- | Low -- °F
--% Chance of Precip.
Yesterday
High -- | Low -- °F
Precip. -- in
6:26 AM 7:40 PM
New Moon, 0% visible
Pressure 29.93 in
Visibility 2.5 miles
Clouds Mostly Cloudy 1200 ft
Overcast 1700 ft
Windchill 32 °F
Dew Point 17 °F
Humidity 44%
Rainfall in
Snow Depth Not available.
UV 1 out of 12
Pollen 10.20 out of 12
Air Quality Not available.
Flu Activity Local Activity
METAR KAXX 182335Z AUTO 12005KT 2 1/2SM -SN BKN012 OVC017 01/00 A2993 RMK AO2 T00140000

More Conditions Fewer Conditions

Pressure 29.93 in
Visibility 2.5 miles
Clouds Mostly Cloudy 1200 ft
Overcast 1700 ft
Windchill 32 °F
Dew Point 17 °F
Humidity 44%
Rainfall in
Snow Depth Not available.
UV 1 out of 12
Pollen 10.20 out of 12
Air Quality Not available.
Flu Activity Local Activity
METAR KAXX 182335Z AUTO 12005KT 2 1/2SM -SN BKN012 OVC017 01/00 A2993 RMK AO2 T00140000

More Conditions Fewer Conditions

Nowcast | as of 4:14 PM MDT on April 18, 2015

A few light rain and High Mountain snow showers will continue over northern New Mexico late this afternoon. No further snow accumulation is expected and rain amounts will only be a trace up to a tenth of an inch.

×

10-Day Weather Forecast

Almanac

Astronomy

Apr. 18, 2015 Rise Set
Actual Time
Civil Twilight
Nautical Twilight
Astronomical Twilight
Moon
Length of Visible Light
Length of Day
Tomorrow will be .
, % of the Moon is Illuminated

Today's Extremes

State Highs State Lows

Community

WunderPhotos

Upload Photos

1,814,580 photos uploaded!

WunderBlogs® & News

Nearby

Air Quality

  Air Quality AQ Index Pollutant
Not available.

Snow Depth

Station Depth Elevation

Earthquake Activity

City Distance Mag. Time & Date
Minimum magnitude displayed is 2.5.

Coastal Water Temperatures

Place Temperature

Stations

Nearby Weather Stations

Station Location Temp. Windchill Dew Point Humidity Wind Precip. Elev Updated Type